sensor_id;sensor_type;location;lat;lon;timestamp;pressure;altitude;pressure_sealevel;temperature;humidity
74228;BME280;62587;52.352;5.006;2023-04-01T00:00:32;98956.91;;;20.83;47.74
74228;BME280;62587;52.352;5.006;2023-04-01T00:02:57;98954.25;;;20.83;47.63
74228;BME280;62587;52.352;5.006;2023-04-01T00:05:22;98958.72;;;20.82;47.42
74228;BME280;62587;52.352;5.006;2023-04-01T00:07:49;98963.88;;;20.84;47.60
74228;BME280;62587;52.352;5.006;2023-04-01T00:10:15;98954.06;;;20.84;47.55
74228;BME280;62587;52.352;5.006;2023-04-01T00:12:41;98963.03;;;20.83;47.53
74228;BME280;62587;52.352;5.006;2023-04-01T00:15:09;98961.03;;;20.85;47.79
74228;BME280;62587;52.352;5.006;2023-04-01T00:17:34;98964.72;;;20.84;47.42
74228;BME280;62587;52.352;5.006;2023-04-01T00:20:00;98966.69;;;20.82;47.32
74228;BME280;62587;52.352;5.006;2023-04-01T00:22:26;98966.16;;;20.79;47.53
74228;BME280;62587;52.352;5.006;2023-04-01T00:24:52;98962.53;;;20.80;47.75
74228;BME280;62587;52.352;5.006;2023-04-01T00:27:18;98963.19;;;20.82;47.48
74228;BME280;62587;52.352;5.006;2023-04-01T00:29:45;98966.03;;;20.80;47.65
74228;BME280;62587;52.352;5.006;2023-04-01T00:32:12;98964.34;;;20.79;47.89
74228;BME280;62587;52.352;5.006;2023-04-01T00:34:37;98969.81;;;20.78;47.73
74228;BME280;62587;52.352;5.006;2023-04-01T00:37:05;98967.16;;;20.78;47.75
74228;BME280;62587;52.352;5.006;2023-04-01T00:39:31;98964.34;;;20.79;47.77
74228;BME280;62587;52.352;5.006;2023-04-01T00:41:58;98966.84;;;20.81;47.33
74228;BME280;62587;52.352;5.006;2023-04-01T00:44:34;98969.66;;;20.79;47.39
74228;BME280;62587;52.352;5.006;2023-04-01T00:46:59;98972.50;;;20.78;47.33
74228;BME280;62587;52.352;5.006;2023-04-01T00:49:29;98969.13;;;20.76;47.74
74228;BME280;62587;52.352;5.006;2023-04-01T00:51:57;98970.63;;;20.78;47.53
74228;BME280;62587;52.352;5.006;2023-04-01T00:54:27;98972.50;;;20.78;47.56
74228;BME280;62587;52.352;5.006;2023-04-01T00:57:09;98969.97;;;20.76;47.55
74228;BME280;62587;52.352;5.006;2023-04-01T00:59:42;98970.97;;;20.75;47.58
74228;BME280;62587;52.352;5.006;2023-04-01T01:02:11;98974.59;;;20.74;47.62
74228;BME280;62587;52.352;5.006;2023-04-01T01:04:37;98982.75;;;20.73;47.63
74228;BME280;62587;52.352;5.006;2023-04-01T01:09:56;98979.16;;;20.82;47.30
74228;BME280;62587;52.352;5.006;2023-04-01T01:12:35;98983.34;;;20.84;47.38
74228;BME280;62587;52.352;5.006;2023-04-01T01:15:15;98979.72;;;20.93;47.05
74228;BME280;62587;52.352;5.006;2023-04-01T01:32:15;98987.09;;;20.99;46.53
74228;BME280;62587;52.352;5.006;2023-04-01T01:37:23;98996.91;;;20.99;46.77
74228;BME280;62587;52.352;5.006;2023-04-01T01:40:03;98994.38;;;20.97;46.54
74228;BME280;62587;52.352;5.006;2023-04-01T01:42:31;99005.00;;;20.97;46.41
74228;BME280;62587;52.352;5.006;2023-04-01T01:44:59;99002.53;;;20.96;46.64
74228;BME280;62587;52.352;5.006;2023-04-01T01:47:27;99005.00;;;20.97;46.68
74228;BME280;62587;52.352;5.006;2023-04-01T01:49:54;99005.00;;;20.97;46.29
74228;BME280;62587;52.352;5.006;2023-04-01T01:52:22;99013.00;;;20.97;46.29
74228;BME280;62587;52.352;5.006;2023-04-01T01:54:53;99013.16;;;20.96;46.45
74228;BME280;62587;52.352;5.006;2023-04-01T01:57:33;99016.97;;;20.93;46.40
74228;BME280;62587;52.352;5.006;2023-04-01T02:00:09;99019.13;;;20.90;46.61
74228;BME280;62587;52.352;5.006;2023-04-01T02:02:40;99023.72;;;20.88;46.68
74228;BME280;62587;52.352;5.006;2023-04-01T02:05:10;99027.41;;;20.87;46.87
74228;BME280;62587;52.352;5.006;2023-04-01T02:07:42;99031.88;;;20.86;46.50
74228;BME280;62587;52.352;5.006;2023-04-01T02:10:09;99032.06;;;20.85;46.42
74228;BME280;62587;52.352;5.006;2023-04-01T02:12:36;99042.53;;;20.86;46.63
74228;BME280;62587;52.352;5.006;2023-04-01T02:15:08;99037.50;;;20.83;46.47
74228;BME280;62587;52.352;5.006;2023-04-01T02:17:39;99043.00;;;20.82;46.76
74228;BME280;62587;52.352;5.006;2023-04-01T02:20:13;99046.63;;;20.81;46.72
74228;BME280;62587;52.352;5.006;2023-04-01T02:22:44;99051.81;;;20.82;46.52
74228;BME280;62587;52.352;5.006;2023-04-01T02:25:14;99054.31;;;20.84;46.51
74228;BME280;62587;52.352;5.006;2023-04-01T02:27:43;99054.13;;;20.85;46.42
74228;BME280;62587;52.352;5.006;2023-04-01T02:30:09;99062.13;;;20.85;46.60
74228;BME280;62587;52.352;5.006;2023-04-01T02:32:35;99054.47;;;20.82;46.59
74228;BME280;62587;52.352;5.006;2023-04-01T02:35:14;99062.28;;;20.84;46.62
74228;BME280;62587;52.352;5.006;2023-04-01T02:37:42;99068.63;;;20.83;46.61
74228;BME280;62587;52.352;5.006;2023-04-01T02:40:11;99063.28;;;20.83;46.55
74228;BME280;62587;52.352;5.006;2023-04-01T02:42:36;99077.56;;;20.82;46.50
74228;BME280;62587;52.352;5.006;2023-04-01T02:45:03;99077.41;;;20.83;46.38
74228;BME280;62587;52.352;5.006;2023-04-01T02:47:28;99074.75;;;20.83;46.41
74228;BME280;62587;52.352;5.006;2023-04-01T02:49:54;99076.59;;;20.83;46.28
74228;BME280;62587;52.352;5.006;2023-04-01T02:52:24;99078.41;;;20.82;46.46
74228;BME280;62587;52.352;5.006;2023-04-01T02:54:50;99081.91;;;20.83;46.49
74228;BME280;62587;52.352;5.006;2023-04-01T02:57:15;99088.88;;;20.84;46.30
74228;BME280;62587;52.352;5.006;2023-04-01T02:59:40;99087.06;;;20.84;46.19
74228;BME280;62587;52.352;5.006;2023-04-01T03:02:06;99091.38;;;20.85;46.28
74228;BME280;62587;52.352;5.006;2023-04-01T03:04:32;99095.06;;;20.84;46.19
74228;BME280;62587;52.352;5.006;2023-04-01T03:06:57;99095.06;;;20.84;46.36
74228;BME280;62587;52.352;5.006;2023-04-01T03:09:23;99100.53;;;20.83;46.30
74228;BME280;62587;52.352;5.006;2023-04-01T03:11:48;99104.00;;;20.83;46.11
74228;BME280;62587;52.352;5.006;2023-04-01T03:14:13;99106.66;;;20.83;46.15
74228;BME280;62587;52.352;5.006;2023-04-01T03:16:39;99113.00;;;20.82;46.08
74228;BME280;62587;52.352;5.006;2023-04-01T03:19:04;99113.84;;;20.83;46.02
74228;BME280;62587;52.352;5.006;2023-04-01T03:21:29;99119.97;;;20.83;46.18
74228;BME280;62587;52.352;5.006;2023-04-01T03:23:55;99117.97;;;20.85;46.25
74228;BME280;62587;52.352;5.006;2023-04-01T03:26:20;99132.97;;;20.86;46.10
74228;BME280;62587;52.352;5.006;2023-04-01T03:28:47;99138.13;;;20.88;46.22
74228;BME280;62587;52.352;5.006;2023-04-01T03:31:12;99142.63;;;20.87;46.19
74228;BME280;62587;52.352;5.006;2023-04-01T03:33:37;99139.97;;;20.87;46.03
74228;BME280;62587;52.352;5.006;2023-04-01T03:36:03;99150.91;;;20.84;46.29
74228;BME280;62587;52.352;5.006;2023-04-01T03:38:35;99154.25;;;20.86;46.14
74228;BME280;62587;52.352;5.006;2023-04-01T03:41:01;99157.75;;;20.87;46.22
74228;BME280;62587;52.352;5.006;2023-04-01T03:43:27;99163.06;;;20.87;45.90
74228;BME280;62587;52.352;5.006;2023-04-01T03:45:52;99170.38;;;20.85;46.02
74228;BME280;62587;52.352;5.006;2023-04-01T03:48:19;99166.88;;;20.84;45.96
74228;BME280;62587;52.352;5.006;2023-04-01T03:50:45;99174.69;;;20.86;46.17
74228;BME280;62587;52.352;5.006;2023-04-01T03:53:10;99176.50;;;20.85;46.07
74228;BME280;62587;52.352;5.006;2023-04-01T03:55:37;99188.00;;;20.86;46.27
74228;BME280;62587;52.352;5.006;2023-04-01T03:58:04;99188.31;;;20.83;46.13
74228;BME280;62587;52.352;5.006;2023-04-01T04:00:30;99195.00;;;20.87;45.98
74228;BME280;62587;52.352;5.006;2023-04-01T04:02:56;99193.00;;;20.89;46.20
74228;BME280;62587;52.352;5.006;2023-04-01T04:05:23;99202.81;;;20.88;46.12
74228;BME280;62587;52.352;5.006;2023-04-01T04:07:49;99197.50;;;20.88;46.05
74228;BME280;62587;52.352;5.006;2023-04-01T04:10:15;99200.44;;;20.85;46.28
74228;BME280;62587;52.352;5.006;2023-04-01T04:12:40;99211.09;;;20.85;45.99
74228;BME280;62587;52.352;5.006;2023-04-01T04:15:07;99211.25;;;20.84;46.10
74228;BME280;62587;52.352;5.006;2023-04-01T04:17:32;99212.09;;;20.84;46.12
74228;BME280;62587;52.352;5.006;2023-04-01T04:19:58;99220.22;;;20.83;46.19
74228;BME280;62587;52.352;5.006;2023-04-01T04:22:23;99221.03;;;20.83;46.22
74228;BME280;62587;52.352;5.006;2023-04-01T04:24:49;99222.91;;;20.83;46.14
74228;BME280;62587;52.352;5.006;2023-04-01T04:27:14;99224.72;;;20.82;46.42
74228;BME280;62587;52.352;5.006;2023-04-01T04:29:40;99239.16;;;20.80;46.33
74228;BME280;62587;52.352;5.006;2023-04-01T04:32:05;99242.50;;;20.82;46.11
74228;BME280;62587;52.352;5.006;2023-04-01T04:34:31;99243.16;;;20.84;46.01
74228;BME280;62587;52.352;5.006;2023-04-01T04:36:56;99255.34;;;20.86;46.07
74228;BME280;62587;52.352;5.006;2023-04-01T04:39:22;99252.00;;;20.84;46.28
74228;BME280;62587;52.352;5.006;2023-04-01T04:41:47;99260.94;;;20.83;45.98
74228;BME280;62587;52.352;5.006;2023-04-01T04:44:12;99261.78;;;20.84;46.30
74228;BME280;62587;52.352;5.006;2023-04-01T04:46:38;99263.31;;;20.86;46.14
74228;BME280;62587;52.352;5.006;2023-04-01T04:49:05;99272.28;;;20.85;45.87
74228;BME280;62587;52.352;5.006;2023-04-01T04:51:30;99275.66;;;20.87;46.15
74228;BME280;62587;52.352;5.006;2023-04-01T04:53:59;99272.28;;;20.85;46.15
74228;BME280;62587;52.352;5.006;2023-04-01T04:56:25;99276.47;;;20.88;46.03
74228;BME280;62587;52.352;5.006;2023-04-01T04:58:51;99285.56;;;20.85;46.10
74228;BME280;62587;52.352;5.006;2023-04-01T05:01:17;99277.47;;;20.87;46.06
74228;BME280;62587;52.352;5.006;2023-04-01T05:03:43;99281.41;;;20.83;45.91
74228;BME280;62587;52.352;5.006;2023-04-01T05:06:12;99299.03;;;20.84;45.96
74228;BME280;62587;52.352;5.006;2023-04-01T05:08:38;99293.56;;;20.85;46.00
74228;BME280;62587;52.352;5.006;2023-04-01T05:11:07;99301.41;;;20.87;45.82
74228;BME280;62587;52.352;5.006;2023-04-01T05:13:35;99312.34;;;20.84;45.99
74228;BME280;62587;52.352;5.006;2023-04-01T05:16:00;99311.66;;;20.82;46.18
74228;BME280;62587;52.352;5.006;2023-04-01T05:18:25;99319.63;;;20.82;46.10
74228;BME280;62587;52.352;5.006;2023-04-01T05:20:53;99317.94;;;20.81;46.12
74228;BME280;62587;52.352;5.006;2023-04-01T05:23:19;99324.56;;;20.77;45.81
74228;BME280;62587;52.352;5.006;2023-04-01T05:25:47;99327.06;;;20.78;46.07
74228;BME280;62587;52.352;5.006;2023-04-01T05:28:12;99329.59;;;20.80;46.07
74228;BME280;62587;52.352;5.006;2023-04-01T05:30:41;99332.25;;;20.80;46.09
74228;BME280;62587;52.352;5.006;2023-04-01T05:33:08;99327.91;;;20.79;46.15
74228;BME280;62587;52.352;5.006;2023-04-01T05:35:34;99338.69;;;20.77;45.92
74228;BME280;62587;52.352;5.006;2023-04-01T05:38:00;99346.69;;;20.77;46.13
74228;BME280;62587;52.352;5.006;2023-04-01T05:40:27;99352.84;;;20.78;46.16
74228;BME280;62587;52.352;5.006;2023-04-01T05:42:52;99352.69;;;20.79;46.06
74228;BME280;62587;52.352;5.006;2023-04-01T05:45:18;99358.84;;;20.80;46.05
74228;BME280;62587;52.352;5.006;2023-04-01T05:47:43;99356.19;;;20.80;45.89
74228;BME280;62587;52.352;5.006;2023-04-01T05:50:09;99365.00;;;20.80;46.01
74228;BME280;62587;52.352;5.006;2023-04-01T05:52:36;99378.31;;;20.80;46.02
74228;BME280;62587;52.352;5.006;2023-04-01T05:55:02;99373.13;;;20.79;46.03
74228;BME280;62587;52.352;5.006;2023-04-01T05:57:28;99377.47;;;20.80;45.89
74228;BME280;62587;52.352;5.006;2023-04-01T05:59:53;99384.59;;;20.79;45.93
74228;BME280;62587;52.352;5.006;2023-04-01T06:02:18;99387.25;;;20.79;46.12
74228;BME280;62587;52.352;5.006;2023-04-01T06:04:44;99382.09;;;20.78;46.17
74228;BME280;62587;52.352;5.006;2023-04-01T06:07:11;99390.09;;;20.78;45.92
74228;BME280;62587;52.352;5.006;2023-04-01T06:09:37;99392.75;;;20.78;46.03
74228;BME280;62587;52.352;5.006;2023-04-01T06:12:16;99395.25;;;20.79;46.06
74228;BME280;62587;52.352;5.006;2023-04-01T06:54:14;99476.84;;;20.88;45.99
74228;BME280;62587;52.352;5.006;2023-04-01T06:56:42;99470.09;;;20.94;45.95
74228;BME280;62587;52.352;5.006;2023-04-01T06:59:19;99473.00;;;21.00;45.81
74228;BME280;62587;52.352;5.006;2023-04-01T07:01:49;99476.97;;;21.06;45.88
74228;BME280;62587;52.352;5.006;2023-04-01T07:04:29;99478.06;;;21.13;45.93
74228;BME280;62587;52.352;5.006;2023-04-01T07:06:59;99492.16;;;21.23;45.69
74228;BME280;62587;52.352;5.006;2023-04-01T07:09:38;99491.44;;;21.30;45.59
74228;BME280;62587;52.352;5.006;2023-04-01T07:12:23;99496.84;;;21.38;45.75
74228;BME280;62587;52.352;5.006;2023-04-01T07:14:54;99504.25;;;21.45;45.31
74228;BME280;62587;52.352;5.006;2023-04-01T07:17:23;99504.50;;;21.51;45.27
74228;BME280;62587;52.352;5.006;2023-04-01T07:20:05;99503.88;;;21.57;45.39
74228;BME280;62587;52.352;5.006;2023-04-01T07:22:39;99510.34;;;21.64;45.08
74228;BME280;62587;52.352;5.006;2023-04-01T07:25:36;99513.91;;;21.73;44.77
74228;BME280;62587;52.352;5.006;2023-04-01T07:28:04;99524.94;;;21.87;44.85
74228;BME280;62587;52.352;5.006;2023-04-01T07:43:50;99546.53;;;22.12;44.77
74228;BME280;62587;52.352;5.006;2023-04-01T07:51:37;99558.91;;;22.03;44.90
74228;BME280;62587;52.352;5.006;2023-04-01T07:54:11;99555.56;;;22.01;44.77
74228;BME280;62587;52.352;5.006;2023-04-01T07:59:22;99572.97;;;21.95;44.85
74228;BME280;62587;52.352;5.006;2023-04-01T08:02:06;99566.16;;;21.93;44.67
74228;BME280;62587;52.352;5.006;2023-04-01T08:04:48;99573.44;;;21.91;44.87
74228;BME280;62587;52.352;5.006;2023-04-01T08:07:20;99573.44;;;21.91;45.08
74228;BME280;62587;52.352;5.006;2023-04-01T08:10:19;99581.41;;;21.91;44.80
74228;BME280;62587;52.352;5.006;2023-04-01T08:16:05;99596.88;;;21.87;44.80
74228;BME280;62587;52.352;5.006;2023-04-01T08:18:41;99595.19;;;21.86;44.85
74228;BME280;62587;52.352;5.006;2023-04-01T08:21:17;99595.34;;;21.85;44.86
74228;BME280;62587;52.352;5.006;2023-04-01T08:23:51;99612.19;;;21.85;44.85
74228;BME280;62587;52.352;5.006;2023-04-01T08:26:38;99603.06;;;21.88;44.53
74228;BME280;62587;52.352;5.006;2023-04-01T08:29:29;99614.69;;;21.87;44.77
74228;BME280;62587;52.352;5.006;2023-04-01T08:32:18;99608.06;;;21.91;44.86
74228;BME280;62587;52.352;5.006;2023-04-01T08:34:54;99622.94;;;21.93;44.39
74228;BME280;62587;52.352;5.006;2023-04-01T08:37:25;99621.09;;;21.94;44.38
74228;BME280;62587;52.352;5.006;2023-04-01T08:39:57;99624.47;;;21.96;44.33
74228;BME280;62587;52.352;5.006;2023-04-01T08:56:20;99647.53;;;22.15;43.85
74228;BME280;62587;52.352;5.006;2023-04-01T08:58:59;99647.09;;;22.19;43.61
74228;BME280;62587;52.352;5.006;2023-04-01T09:07:40;99663.31;;;22.26;43.69
74228;BME280;62587;52.352;5.006;2023-04-01T09:10:24;99659.97;;;22.24;43.56
